San Francisco, California
Traffic Map
Current Weather Conditions
San Francisco, California
Broken Clouds
Broken Clouds
59°
Feels Like: 59°
Wind Chill: 59° Ceiling: 3900
Heat Index: 59° Visibility: 10mi
Dew Point: 50° Wind: 14mph
Humidity: 72% Direction: 230° (SW)
Pressure: 30.21in Gusts: 0mph
Raw Report DataKSFO 211956Z 23012KT 10SM FEW023 SCT031 BKN039 15/10 A3021 RMK AO2 RAB24E42 SLP231 P0000 T01500100
Traffic Incident Summary
Active as of:
Severity:
Category:
InformationThere was an issue retrieving the traffic information for this location. Please try a different location or try again shortly.
Advertisements
Track Severe Weather on mobile